createdAt,value
2018-12-08T00:00:02.198Z,929.74
2018-12-08T00:00:15.125Z,929.72
2018-12-08T00:00:28.068Z,929.68
2018-12-08T00:00:41.037Z,929.78
2018-12-08T00:00:54.003Z,929.74
2018-12-08T00:01:07.029Z,929.79
2018-12-08T00:01:20.464Z,929.72
2018-12-08T00:01:33.405Z,929.68
2018-12-08T00:01:46.486Z,929.75
2018-12-08T00:01:59.433Z,929.68
2018-12-08T00:02:12.359Z,929.73
2018-12-08T00:02:25.368Z,929.75
2018-12-08T00:02:38.328Z,929.74
2018-12-08T00:02:51.249Z,929.72
2018-12-08T00:03:04.265Z,929.71
2018-12-08T00:03:17.202Z,929.73
2018-12-08T00:03:30.133Z,929.72
2018-12-08T00:03:43.050Z,929.69
2018-12-08T00:03:56.031Z,929.78
2018-12-08T00:04:09.032Z,929.77
2018-12-08T00:04:21.993Z,929.74
2018-12-08T00:04:34.889Z,929.64
2018-12-08T00:04:47.850Z,929.7
2018-12-08T00:05:00.791Z,929.71
2018-12-08T00:05:13.720Z,929.76
2018-12-08T00:05:26.202Z,929.79
2018-12-08T00:05:39.154Z,929.77
2018-12-08T00:05:52.113Z,929.72
2018-12-08T00:06:05.072Z,929.77
2018-12-08T00:06:18.043Z,929.78
2018-12-08T00:06:31.029Z,929.76
2018-12-08T00:06:43.986Z,929.8
2018-12-08T00:06:56.932Z,929.83
2018-12-08T00:07:09.908Z,929.86
2018-12-08T00:07:23.018Z,929.83
2018-12-08T00:07:35.968Z,929.82
2018-12-08T00:07:48.921Z,929.79
2018-12-08T00:08:01.845Z,929.87
2018-12-08T00:08:14.783Z,929.91
2018-12-08T00:08:27.749Z,929.86
2018-12-08T00:08:40.699Z,929.89
2018-12-08T00:08:53.724Z,929.9
2018-12-08T00:09:06.251Z,929.86
2018-12-08T00:09:19.184Z,929.91
2018-12-08T00:09:32.128Z,929.89
2018-12-08T00:09:45.074Z,929.91
2018-12-08T00:09:58.028Z,929.93
2018-12-08T00:10:10.970Z,930.01
2018-12-08T00:10:23.918Z,929.93
2018-12-08T00:10:36.878Z,929.97
2018-12-08T00:10:49.846Z,929.97
2018-12-08T00:11:02.858Z,929.93
2018-12-08T00:11:15.785Z,929.97
2018-12-08T00:11:28.778Z,929.93
2018-12-08T00:11:43.583Z,929.95
2018-12-08T00:11:56.595Z,929.95
2018-12-08T00:12:09.547Z,929.93
2018-12-08T00:12:22.569Z,929.97
2018-12-08T00:12:35.574Z,929.97
2018-12-08T00:12:48.536Z,930
2018-12-08T00:13:01.472Z,929.99
2018-12-08T00:13:14.514Z,929.98
2018-12-08T00:13:27.439Z,929.98
2018-12-08T00:13:40.410Z,929.92
2018-12-08T00:13:53.401Z,929.93
2018-12-08T00:14:06.423Z,929.93
2018-12-08T00:14:19.379Z,929.93
2018-12-08T00:14:32.358Z,930
2018-12-08T00:14:45.295Z,930.01
2018-12-08T00:14:58.253Z,929.97
2018-12-08T00:15:11.237Z,929.96
2018-12-08T00:15:24.180Z,929.98
2018-12-08T00:15:36.655Z,930.01
2018-12-08T00:15:49.588Z,930.01
2018-12-08T00:16:02.140Z,929.97
2018-12-08T00:16:15.115Z,929.95
2018-12-08T00:16:29.111Z,929.96
2018-12-08T00:16:42.066Z,929.94
2018-12-08T00:16:55.020Z,929.99
2018-12-08T00:17:07.938Z,929.97
2018-12-08T00:17:20.912Z,930.01
2018-12-08T00:17:33.887Z,930.01
2018-12-08T00:17:46.818Z,930.07
2018-12-08T00:17:59.859Z,930.01
2018-12-08T00:18:12.825Z,929.98
2018-12-08T00:18:25.779Z,929.97
2018-12-08T00:18:38.749Z,929.98
2018-12-08T00:18:51.701Z,930.02
2018-12-08T00:19:04.654Z,930
2018-12-08T00:19:17.631Z,929.99
2018-12-08T00:19:30.614Z,930.07
2018-12-08T00:19:43.599Z,930.03
2018-12-08T00:19:56.549Z,930.05
2018-12-08T00:20:09.497Z,930.02
2018-12-08T00:20:22.444Z,930.05
2018-12-08T00:20:35.404Z,930.09
2018-12-08T00:20:48.441Z,930.08
2018-12-08T00:21:01.387Z,930.1
2018-12-08T00:21:14.366Z,930.06
2018-12-08T00:21:27.350Z,930.13
2018-12-08T00:21:40.292Z,930.14
2018-12-08T00:21:53.265Z,930.2
2018-12-08T00:22:06.217Z,930.16
2018-12-08T00:22:19.189Z,930.22
2018-12-08T00:22:32.117Z,930.18
2018-12-08T00:22:45.126Z,930.13
2018-12-08T00:22:58.068Z,930.12
2018-12-08T00:23:11.073Z,930.07
2018-12-08T00:23:23.574Z,930.16
2018-12-08T00:23:36.494Z,930.15
2018-12-08T00:23:49.527Z,930.11
2018-12-08T00:24:02.461Z,930.11
2018-12-08T00:24:15.449Z,930.23
2018-12-08T00:24:28.393Z,930.04
2018-12-08T00:24:41.329Z,930
2018-12-08T00:24:53.884Z,930.04
2018-12-08T00:25:06.855Z,929.96
2018-12-08T00:25:19.794Z,929.91
2018-12-08T00:25:32.772Z,929.93
2018-12-08T00:25:45.775Z,929.87
2018-12-08T00:25:58.722Z,929.87
2018-12-08T00:26:12.258Z,929.87
2018-12-08T00:26:25.209Z,929.86
2018-12-08T00:26:38.151Z,929.85
2018-12-08T00:26:51.114Z,929.83
2018-12-08T00:27:04.070Z,929.83
2018-12-08T00:27:17.073Z,929.82
2018-12-08T00:27:30.046Z,929.84
2018-12-08T00:27:42.995Z,929.85
2018-12-08T00:27:55.952Z,929.83
2018-12-08T00:28:08.878Z,929.89
2018-12-08T00:28:21.815Z,929.88
2018-12-08T00:28:34.785Z,929.94
2018-12-08T00:28:47.761Z,929.89
2018-12-08T00:29:00.742Z,929.94
2018-12-08T00:29:13.723Z,929.93
2018-12-08T00:29:26.700Z,929.93
2018-12-08T00:29:39.693Z,929.99
2018-12-08T00:29:52.665Z,929.95
2018-12-08T00:30:05.618Z,930.03
2018-12-08T00:30:18.623Z,930.01
2018-12-08T00:30:31.601Z,930.01
2018-12-08T00:30:44.563Z,930.04
2018-12-08T00:30:57.482Z,930.13
2018-12-08T00:31:10.489Z,930.06
2018-12-08T00:31:23.406Z,930.11
2018-12-08T00:31:36.541Z,930.09
2018-12-08T00:31:48.997Z,930.08
2018-12-08T00:32:01.956Z,930.13
2018-12-08T00:32:14.871Z,930.23
2018-12-08T00:32:27.852Z,930.21
2018-12-08T00:32:40.840Z,930.25
2018-12-08T00:32:53.808Z,930.23
2018-12-08T00:33:06.810Z,930.21
2018-12-08T00:33:19.777Z,930.28
2018-12-08T00:33:32.764Z,930.23
2018-12-08T00:33:45.719Z,930.25
2018-12-08T00:33:58.645Z,930.16
2018-12-08T00:34:11.174Z,930.26
2018-12-08T00:34:24.131Z,930.3
2018-12-08T00:34:37.070Z,930.34
2018-12-08T00:34:50.020Z,930.29
2018-12-08T00:35:02.998Z,930.26
2018-12-08T00:35:15.959Z,930.27
2018-12-08T00:35:28.921Z,930.35
2018-12-08T00:35:41.866Z,930.3
2018-12-08T00:35:54.379Z,930.32
2018-12-08T00:36:07.305Z,930.3
2018-12-08T00:36:20.327Z,930.3
2018-12-08T00:36:33.327Z,930.33
2018-12-08T00:36:46.311Z,930.31
2018-12-08T00:36:59.251Z,930.28
2018-12-08T00:37:12.135Z,930.28
2018-12-08T00:37:25.065Z,930.33
2018-12-08T00:37:37.985Z,930.26
2018-12-08T00:37:50.891Z,930.32
2018-12-08T00:38:03.830Z,930.31
2018-12-08T00:38:16.839Z,930.36
2018-12-08T00:38:29.784Z,930.36
2018-12-08T00:38:42.803Z,930.36
2018-12-08T00:38:55.855Z,930.35
2018-12-08T00:39:08.778Z,930.31
2018-12-08T00:39:21.781Z,930.38
2018-12-08T00:39:34.679Z,930.38
2018-12-08T00:39:47.661Z,930.38
2018-12-08T00:40:00.578Z,930.37
2018-12-08T00:40:13.559Z,930.4
2018-12-08T00:40:26.579Z,930.36
2018-12-08T00:40:39.546Z,930.36
2018-12-08T00:40:52.465Z,930.35
2018-12-08T00:41:05.449Z,930.32
2018-12-08T00:41:18.423Z,930.35
2018-12-08T00:41:31.347Z,930.33
2018-12-08T00:41:44.265Z,930.27
2018-12-08T00:41:57.255Z,930.26
2018-12-08T00:42:10.157Z,930.29
2018-12-08T00:42:23.118Z,930.24
2018-12-08T00:42:35.996Z,930.27
2018-12-08T00:42:48.982Z,930.24
2018-12-08T00:43:01.992Z,930.23
2018-12-08T00:43:14.931Z,930.22
2018-12-08T00:43:27.892Z,930.2
2018-12-08T00:43:40.911Z,930.21
2018-12-08T00:43:53.878Z,930.2
2018-12-08T00:44:06.873Z,930.19
2018-12-08T00:44:19.809Z,930.18
2018-12-08T00:44:32.761Z,930.17
2018-12-08T00:44:45.689Z,930.13
2018-12-08T00:44:58.723Z,930.19
2018-12-08T00:45:11.681Z,930.14
2018-12-08T00:45:24.610Z,930.15
2018-12-08T00:45:37.603Z,930.17
2018-12-08T00:45:50.585Z,930.17
2018-12-08T00:46:03.571Z,930.15
2018-12-08T00:46:16.061Z,930.17
2018-12-08T00:46:29.029Z,930.18
2018-12-08T00:46:42.990Z,930.14
2018-12-08T00:46:55.975Z,930.17
2018-12-08T00:47:08.921Z,930.17
2018-12-08T00:47:21.903Z,930.15
2018-12-08T00:47:34.829Z,930.12
2018-12-08T00:47:47.777Z,930.18
2018-12-08T00:48:00.796Z,930.15
2018-12-08T00:48:13.772Z,930.17
2018-12-08T00:48:26.751Z,930.15
2018-12-08T00:48:39.745Z,930.15
2018-12-08T00:48:52.778Z,930.17
2018-12-08T00:49:05.323Z,930.16
2018-12-08T00:49:18.332Z,930.15
2018-12-08T00:49:31.297Z,930.16
2018-12-08T00:49:44.298Z,930.2
2018-12-08T00:49:57.254Z,930.21
2018-12-08T00:50:10.201Z,930.18
2018-12-08T00:50:23.106Z,930.15
2018-12-08T00:50:36.058Z,930.18
2018-12-08T00:50:49.012Z,930.2
2018-12-08T00:51:01.966Z,930.15
2018-12-08T00:51:14.947Z,930.18
2018-12-08T00:51:27.913Z,930.19
2018-12-08T00:51:40.903Z,930.17
2018-12-08T00:51:53.878Z,930.19
2018-12-08T00:52:06.917Z,930.16
2018-12-08T00:52:19.827Z,930.17
2018-12-08T00:52:32.809Z,930.23
2018-12-08T00:52:45.774Z,930.15
2018-12-08T00:52:58.797Z,930.24
2018-12-08T00:53:11.791Z,930.21
2018-12-08T00:53:24.722Z,930.17
2018-12-08T00:53:37.675Z,930.22
2018-12-08T00:53:50.610Z,930.17
2018-12-08T00:54:03.590Z,930.15
2018-12-08T00:54:16.614Z,930.15
2018-12-08T00:54:29.578Z,930.1
2018-12-08T00:54:42.555Z,930.15
2018-12-08T00:54:55.461Z,930.08
2018-12-08T00:55:08.519Z,930.13
2018-12-08T00:55:21.493Z,930.14
2018-12-08T00:55:34.477Z,930.12
2018-12-08T00:55:46.933Z,930.14
2018-12-08T00:55:59.921Z,930.23
2018-12-08T00:56:12.922Z,930.1
2018-12-08T00:56:25.866Z,930.14
2018-12-08T00:56:38.801Z,930.14
2018-12-08T00:56:51.710Z,930.14
2018-12-08T00:57:04.689Z,930.13
2018-12-08T00:57:17.661Z,930.17
2018-12-08T00:57:30.625Z,930.16
2018-12-08T00:57:43.629Z,930.14
2018-12-08T00:57:56.636Z,930.16
2018-12-08T00:58:09.638Z,930.12
2018-12-08T00:58:22.626Z,930.15
2018-12-08T00:58:35.565Z,930.09
2018-12-08T00:58:48.475Z,930.12
2018-12-08T00:59:01.508Z,930.1
2018-12-08T00:59:14.465Z,930.11
2018-12-08T00:59:27.456Z,930.12
2018-12-08T00:59:40.427Z,930.1
2018-12-08T00:59:53.349Z,930.1
2018-12-08T01:00:06.448Z,930.08
2018-12-08T01:00:19.425Z,930.1
2018-12-08T01:00:32.399Z,930.12
2018-12-08T01:00:45.301Z,930.08
2018-12-08T01:00:58.257Z,930.1
2018-12-08T01:01:11.196Z,930.17
2018-12-08T01:01:24.202Z,930.09
2018-12-08T01:01:37.397Z,930.09
2018-12-08T01:01:50.391Z,930.14
2018-12-08T01:02:03.371Z,930.11
2018-12-08T01:02:16.345Z,930.14
2018-12-08T01:02:29.319Z,930.2
2018-12-08T01:02:42.320Z,930.15
2018-12-08T01:02:55.284Z,930.14
2018-12-08T01:03:08.277Z,930.16
2018-12-08T01:03:21.237Z,930.1
2018-12-08T01:03:34.167Z,930.12
2018-12-08T01:03:47.131Z,930.12
2018-12-08T01:04:00.023Z,930.12
2018-12-08T01:04:12.914Z,930.12
2018-12-08T01:04:25.870Z,930.1
2018-12-08T01:04:38.824Z,930.17
2018-12-08T01:04:51.844Z,930.15
2018-12-08T01:05:04.801Z,930.09
2018-12-08T01:05:17.821Z,930.11
2018-12-08T01:05:30.793Z,930.11
2018-12-08T01:05:43.743Z,930.08
2018-12-08T01:05:56.739Z,930.1
2018-12-08T01:06:09.661Z,930.06
2018-12-08T01:06:22.788Z,930.1
2018-12-08T01:06:35.856Z,930.14
2018-12-08T01:06:48.807Z,930.1
2018-12-08T01:07:01.698Z,930.15
2018-12-08T01:07:14.773Z,930.11
2018-12-08T01:07:27.778Z,930.12
2018-12-08T01:07:40.779Z,930.11
2018-12-08T01:07:53.813Z,930.2
2018-12-08T01:08:06.688Z,930.15
2018-12-08T01:08:19.793Z,930.15
2018-12-08T01:08:32.276Z,930.17
2018-12-08T01:08:45.349Z,930.17
2018-12-08T01:08:58.367Z,930.16
2018-12-08T01:09:10.934Z,930.15
2018-12-08T01:09:24.016Z,930.14
2018-12-08T01:09:36.997Z,930.2
2018-12-08T01:09:49.969Z,930.17
2018-12-08T01:10:03.155Z,930.17
2018-12-08T01:10:16.245Z,930.13
2018-12-08T01:10:29.146Z,930.15
2018-12-08T01:10:42.250Z,930.16
2018-12-08T01:10:55.250Z,930.16
2018-12-08T01:11:08.180Z,930.21
2018-12-08T01:11:21.402Z,930.17
2018-12-08T01:11:34.464Z,930.16
2018-12-08T01:11:47.401Z,930.18
2018-12-08T01:12:00.516Z,930.18
2018-12-08T01:12:13.642Z,930.13
2018-12-08T01:12:26.208Z,930.13
2018-12-08T01:12:39.429Z,930.22
2018-12-08T01:12:52.499Z,930.12
2018-12-08T01:13:05.598Z,930.15
2018-12-08T01:13:18.639Z,930.12
2018-12-08T01:13:31.574Z,930.12
2018-12-08T01:13:44.484Z,930.11
2018-12-08T01:13:57.447Z,930.13
2018-12-08T01:14:10.574Z,930.11
2018-12-08T01:14:23.573Z,930.14
2018-12-08T01:14:36.659Z,930.11
2018-12-08T01:14:49.577Z,930.11
2018-12-08T01:15:02.511Z,930.09
2018-12-08T01:15:15.435Z,930.1
2018-12-08T01:15:28.557Z,930.12
2018-12-08T01:15:41.579Z,930.13
2018-12-08T01:15:54.633Z,930.13
2018-12-08T01:16:07.845Z,930.11
2018-12-08T01:16:20.815Z,930.1
2018-12-08T01:16:33.771Z,930.12
2018-12-08T01:16:47.285Z,930.06
2018-12-08T01:17:00.373Z,930.1
2018-12-08T01:17:13.644Z,930.1
2018-12-08T01:17:26.644Z,930.14
2018-12-08T01:17:39.617Z,930.05
2018-12-08T01:17:52.105Z,930.12
2018-12-08T01:18:05.130Z,930.1
2018-12-08T01:18:18.250Z,930.08
2018-12-08T01:18:31.286Z,930.12
2018-12-08T01:18:44.356Z,930.13
2018-12-08T01:18:57.500Z,930.13
2018-12-08T01:19:10.565Z,930.11
2018-12-08T01:19:23.515Z,930.09
2018-12-08T01:19:36.477Z,930.12
2018-12-08T01:19:49.598Z,930.09
2018-12-08T01:20:02.667Z,930.1
2018-12-08T01:20:15.665Z,930.12
2018-12-08T01:20:28.647Z,930.09
2018-12-08T01:20:41.653Z,930.11
2018-12-08T01:20:54.654Z,930.1
2018-12-08T01:21:07.374Z,930.09
2018-12-08T01:21:20.455Z,930.1
2018-12-08T01:21:33.496Z,930.11
2018-12-08T01:21:46.508Z,930.07
2018-12-08T01:22:01.084Z,930.11
2018-12-08T01:22:14.025Z,930.06
2018-12-08T01:22:26.921Z,930.11
2018-12-08T01:22:39.868Z,930.09
2018-12-08T01:22:52.978Z,930.04
2018-12-08T01:23:05.944Z,930.09
2018-12-08T01:23:18.928Z,930.09
2018-12-08T01:23:31.927Z,930.06
2018-12-08T01:23:44.900Z,930.08
2018-12-08T01:23:57.484Z,930.01
2018-12-08T01:24:10.542Z,930.04
2018-12-08T01:24:23.556Z,930.01
2018-12-08T01:24:36.394Z,930.02
2018-12-08T01:24:51.361Z,930.01
2018-12-08T01:25:04.449Z,930.01
2018-12-08T01:25:17.589Z,930.04
2018-12-08T01:25:30.568Z,930.02
2018-12-08T01:25:43.699Z,929.97
2018-12-08T01:25:56.676Z,929.98
2018-12-08T01:26:09.699Z,929.99
2018-12-08T01:26:22.811Z,929.95
2018-12-08T01:26:35.833Z,930.1
2018-12-08T01:26:48.840Z,930.02
2018-12-08T01:27:01.729Z,930.04
2018-12-08T01:27:14.920Z,929.97
2018-12-08T01:27:27.888Z,930.05
2018-12-08T01:27:42.144Z,930.04
2018-12-08T01:27:55.080Z,929.95
2018-12-08T01:28:08.110Z,929.99
2018-12-08T01:28:21.053Z,930.03
2018-12-08T01:28:34.897Z,930.02
2018-12-08T01:28:47.853Z,930.06
2018-12-08T01:29:00.958Z,930.02
2018-12-08T01:29:13.987Z,930.03
2018-12-08T01:29:27.094Z,930.01
2018-12-08T01:29:40.145Z,930
2018-12-08T01:29:54.547Z,930.03
2018-12-08T01:30:07.702Z,930.03
2018-12-08T01:30:20.712Z,930.01
2018-12-08T01:30:33.900Z,930.05
2018-12-08T01:30:46.924Z,930.05
2018-12-08T01:30:59.858Z,930
2018-12-08T01:31:12.791Z,930.02
2018-12-08T01:31:26.017Z,930.03
2018-12-08T01:31:39.164Z,930.02
2018-12-08T01:31:52.377Z,929.99
2018-12-08T01:32:05.533Z,930.02
2018-12-08T01:32:18.713Z,930.03
2018-12-08T01:32:31.766Z,930.02
2018-12-08T01:32:44.639Z,929.99
2018-12-08T01:32:58.644Z,930.01
2018-12-08T01:33:11.826Z,930.03
2018-12-08T01:33:25.047Z,929.98
2018-12-08T01:33:38.085Z,929.93
2018-12-08T01:33:51.096Z,929.89
2018-12-08T01:34:04.215Z,929.94
2018-12-08T01:34:17.385Z,929.92
2018-12-08T01:34:30.074Z,929.94
2018-12-08T01:34:43.139Z,929.95
2018-12-08T01:34:56.143Z,929.89
2018-12-08T01:35:09.261Z,929.91
2018-12-08T01:35:23.462Z,930
2018-12-08T01:35:36.377Z,929.98
2018-12-08T01:35:49.428Z,929.96
2018-12-08T01:36:02.507Z,929.99
2018-12-08T01:36:15.523Z,929.91
2018-12-08T01:36:28.638Z,929.98
2018-12-08T01:36:41.508Z,929.99
2018-12-08T01:36:54.504Z,929.95
2018-12-08T01:37:07.431Z,929.93
2018-12-08T01:37:20.469Z,929.95
2018-12-08T01:37:33.548Z,929.94
2018-12-08T01:37:46.561Z,929.95
2018-12-08T01:37:59.720Z,929.95
2018-12-08T01:38:12.764Z,929.92
2018-12-08T01:38:25.220Z,930.01
2018-12-08T01:38:38.133Z,929.97
2018-12-08T01:38:51.365Z,929.95
2018-12-08T01:39:04.337Z,929.9
2018-12-08T01:39:17.582Z,929.94
2018-12-08T01:39:30.561Z,929.95
2018-12-08T01:39:43.534Z,929.96
2018-12-08T01:39:56.579Z,929.97
2018-12-08T01:40:09.727Z,930.01
2018-12-08T01:40:22.825Z,930.08
2018-12-08T01:40:35.819Z,929.98
2018-12-08T01:40:48.821Z,930.01
2018-12-08T01:41:01.840Z,929.99
2018-12-08T01:41:14.975Z,929.93
2018-12-08T01:41:28.211Z,929.99
2018-12-08T01:41:43.309Z,929.99
2018-12-08T01:41:56.415Z,930.01
2018-12-08T01:42:09.247Z,930.03
2018-12-08T01:42:22.381Z,929.99
2018-12-08T01:42:35.401Z,930.01
2018-12-08T01:42:50.002Z,930.03
2018-12-08T01:43:03.041Z,930.04
2018-12-08T01:43:16.026Z,930.03
2018-12-08T01:43:29.095Z,930.08
2018-12-08T01:43:43.715Z,930
2018-12-08T01:43:56.744Z,930.02
2018-12-08T01:44:09.818Z,930.07
2018-12-08T01:44:22.796Z,930.1
2018-12-08T01:44:35.974Z,930.03
2018-12-08T01:44:48.989Z,930.04
2018-12-08T01:45:01.938Z,930.08
2018-12-08T01:45:15.075Z,930.09
2018-12-08T01:45:28.331Z,930.11
2018-12-08T01:45:41.403Z,930.12
2018-12-08T01:45:54.758Z,930.05
2018-12-08T01:46:07.648Z,930.12
2018-12-08T01:46:20.671Z,930.13
2018-12-08T01:46:33.616Z,930
2018-12-08T01:46:46.621Z,930.05
2018-12-08T01:47:00.660Z,930.14
2018-12-08T01:47:13.946Z,929.99
2018-12-08T01:47:27.021Z,930.04
2018-12-08T01:47:39.983Z,930.05
2018-12-08T01:47:53.184Z,930.04
2018-12-08T01:48:06.280Z,930.07
2018-12-08T01:48:19.193Z,930.06
2018-12-08T01:48:32.128Z,930.04
2018-12-08T01:48:45.214Z,930.02
2018-12-08T01:48:58.411Z,930.05
2018-12-08T01:49:11.443Z,930.03
2018-12-08T01:49:24.476Z,930.04
2018-12-08T01:49:37.570Z,930.03
2018-12-08T01:49:50.574Z,930.03
2018-12-08T01:50:03.568Z,930
2018-12-08T01:50:16.560Z,930.04
2018-12-08T01:50:29.585Z,929.99
2018-12-08T01:50:42.705Z,930.02
2018-12-08T01:50:55.692Z,929.98
2018-12-08T01:51:08.577Z,929.96
2018-12-08T01:51:21.513Z,929.99
2018-12-08T01:51:34.551Z,929.95
2018-12-08T01:51:47.602Z,930.03
2018-12-08T01:52:00.545Z,930
2018-12-08T01:52:13.561Z,929.99
2018-12-08T01:52:26.645Z,930.02
2018-12-08T01:52:39.586Z,929.96
2018-12-08T01:52:52.826Z,929.99
2018-12-08T01:53:05.878Z,929.94
2018-12-08T01:53:18.934Z,929.98
2018-12-08T01:53:32.145Z,929.99
2018-12-08T01:53:45.304Z,930.01
2018-12-08T01:53:58.289Z,929.94
2018-12-08T01:54:11.377Z,930.01
2018-12-08T01:54:24.490Z,930
2018-12-08T01:54:37.562Z,929.98
2018-12-08T01:54:50.649Z,930.01
2018-12-08T01:55:03.669Z,930.02
2018-12-08T01:55:16.676Z,930
2018-12-08T01:55:29.661Z,929.97
2018-12-08T01:55:42.790Z,930.03
2018-12-08T01:55:55.947Z,930.02
2018-12-08T01:56:08.506Z,929.99
2018-12-08T01:56:20.992Z,929.99
2018-12-08T01:56:34.041Z,930.02
2018-12-08T01:56:47.047Z,929.97
2018-12-08T01:56:59.891Z,929.94
2018-12-08T01:57:12.838Z,929.98
2018-12-08T01:57:25.822Z,930
2018-12-08T01:57:38.965Z,929.99
2018-12-08T01:57:52.032Z,929.98
2018-12-08T01:58:04.880Z,929.98
2018-12-08T01:58:17.875Z,930
2018-12-08T01:58:30.826Z,930
2018-12-08T01:58:43.862Z,929.94
2018-12-08T01:58:57.016Z,930.09
2018-12-08T01:59:10.071Z,929.97
2018-12-08T01:59:22.980Z,930.07
2018-12-08T01:59:35.936Z,929.99
2018-12-08T01:59:48.431Z,929.98
2018-12-08T02:00:03.053Z,929.93
2018-12-08T02:00:16.192Z,929.93
2018-12-08T02:00:29.290Z,929.97
2018-12-08T02:00:42.352Z,929.93
2018-12-08T02:00:55.390Z,929.92
2018-12-08T02:01:08.301Z,929.84
2018-12-08T02:01:21.248Z,929.94
2018-12-08T02:01:34.368Z,929.95
2018-12-08T02:01:47.470Z,929.98
2018-12-08T02:02:02.787Z,929.9
2018-12-08T02:02:15.813Z,929.9
2018-12-08T02:02:28.707Z,929.91
2018-12-08T02:02:41.674Z,929.9
2018-12-08T02:02:54.740Z,929.92
2018-12-08T02:03:07.914Z,929.93
2018-12-08T02:03:21.039Z,929.97
2018-12-08T02:03:34.163Z,929.89
2018-12-08T02:03:47.158Z,929.94
2018-12-08T02:04:00.082Z,929.88
2018-12-08T02:04:13.123Z,929.88
2018-12-08T02:04:26.269Z,929.91
2018-12-08T02:04:39.367Z,929.9
2018-12-08T02:04:52.372Z,929.85
2018-12-08T02:05:05.453Z,929.86
2018-12-08T02:05:18.486Z,929.87
2018-12-08T02:05:31.441Z,929.95
2018-12-08T02:05:44.462Z,930.02
2018-12-08T02:05:57.475Z,929.94
2018-12-08T02:06:10.630Z,930.01
2018-12-08T02:06:23.582Z,929.93
2018-12-08T02:06:36.623Z,929.95
2018-12-08T02:06:49.589Z,929.94
2018-12-08T02:07:02.698Z,929.85
2018-12-08T02:07:15.193Z,929.88
2018-12-08T02:07:28.225Z,929.87
2018-12-08T02:07:41.366Z,929.93
2018-12-08T02:07:54.383Z,929.86
2018-12-08T02:08:07.381Z,929.88
2018-12-08T02:08:20.223Z,929.93
2018-12-08T02:08:33.467Z,929.97
2018-12-08T02:08:46.639Z,929.94
2018-12-08T02:08:59.600Z,929.97
2018-12-08T02:09:14.476Z,929.9
2018-12-08T02:09:27.667Z,929.98
2018-12-08T02:09:40.753Z,929.98
2018-12-08T02:09:53.672Z,929.97
2018-12-08T02:10:06.666Z,929.97
2018-12-08T02:10:19.594Z,929.98
2018-12-08T02:10:32.544Z,929.96
2018-12-08T02:10:45.816Z,929.97
2018-12-08T02:10:58.365Z,929.96
2018-12-08T02:11:11.601Z,929.95
2018-12-08T02:11:31.814Z,929.97
2018-12-08T02:11:44.666Z,929.99
2018-12-08T02:11:57.660Z,929.97
2018-12-08T02:12:10.722Z,929.96
2018-12-08T02:12:23.638Z,929.98
2018-12-08T02:12:36.774Z,929.92
2018-12-08T02:12:49.793Z,929.96
2018-12-08T02:13:02.748Z,929.98
2018-12-08T02:13:15.680Z,929.94
2018-12-08T02:13:28.982Z,930.07
2018-12-08T02:13:42.074Z,929.94
2018-12-08T02:13:55.068Z,929.97
2018-12-08T02:14:08.245Z,930.01
2018-12-08T02:14:21.261Z,929.96
2018-12-08T02:14:34.231Z,929.97
2018-12-08T02:14:47.441Z,930.03
2018-12-08T02:15:00.565Z,930.09
2018-12-08T02:15:13.754Z,930.03
2018-12-08T02:15:26.908Z,930.06
2018-12-08T02:15:40.073Z,930
2018-12-08T02:15:53.969Z,929.98
2018-12-08T02:16:06.835Z,930.02
2018-12-08T02:16:19.908Z,930
2018-12-08T02:16:33.008Z,930.02
2018-12-08T02:16:46.134Z,930
2018-12-08T02:16:59.202Z,930.03
2018-12-08T02:17:13.315Z,930.01
2018-12-08T02:17:26.206Z,930.03
2018-12-08T02:17:39.132Z,930.04
2018-12-08T02:17:52.287Z,930.02
2018-12-08T02:18:05.368Z,929.99
2018-12-08T02:18:18.416Z,930.03
2018-12-08T02:18:31.436Z,930.08
2018-12-08T02:18:44.525Z,930.07
2018-12-08T02:18:57.471Z,930
2018-12-08T02:19:10.419Z,930.03
2018-12-08T02:19:23.556Z,930.11
2018-12-08T02:19:36.715Z,930.25
2018-12-08T02:19:49.766Z,930.11
2018-12-08T02:20:02.766Z,930.1
2018-12-08T02:20:15.301Z,930.1
2018-12-08T02:20:28.233Z,930.06
2018-12-08T02:20:40.856Z,930.11
2018-12-08T02:20:53.954Z,930.11
2018-12-08T02:21:06.910Z,930.13
2018-12-08T02:21:19.767Z,930.13
2018-12-08T02:21:32.820Z,930.13
2018-12-08T02:21:45.966Z,930.13
2018-12-08T02:21:58.912Z,930.14
2018-12-08T02:22:11.920Z,930.13
2018-12-08T02:22:24.927Z,930.16
2018-12-08T02:22:37.931Z,930.18
2018-12-08T02:22:50.813Z,930.18
2018-12-08T02:23:03.961Z,930.25
2018-12-08T02:23:17.015Z,930.18
2018-12-08T02:23:29.919Z,930.21
2018-12-08T02:23:42.991Z,930.23
2018-12-08T02:23:55.919Z,930.13
2018-12-08T02:24:08.978Z,930.12
2018-12-08T02:24:21.707Z,930.14
2018-12-08T02:24:34.748Z,930.15
2018-12-08T02:24:47.847Z,930.14
2018-12-08T02:25:00.922Z,930.16
2018-12-08T02:25:13.935Z,930.16
2018-12-08T02:25:26.870Z,930.14
2018-12-08T02:25:39.480Z,930.17
2018-12-08T02:25:52.443Z,930.18
2018-12-08T02:26:05.435Z,930.14
2018-12-08T02:26:18.390Z,930.16
2018-12-08T02:26:31.444Z,930.16
2018-12-08T02:26:44.419Z,930.19
2018-12-08T02:26:57.436Z,930.2
2018-12-08T02:27:10.579Z,930.16
2018-12-08T02:27:23.673Z,930.16
2018-12-08T02:27:36.743Z,930.22
2018-12-08T02:27:49.472Z,930.14
2018-12-08T02:28:02.859Z,930.13
2018-12-08T02:28:15.362Z,930.2
2018-12-08T02:28:28.410Z,930.16
2018-12-08T02:28:41.487Z,930.14
2018-12-08T02:28:54.586Z,930.19
2018-12-08T02:29:07.607Z,930.11
2018-12-08T02:29:20.776Z,930.13
2018-12-08T02:29:33.818Z,930.13
2018-12-08T02:29:46.818Z,930.12
2018-12-08T02:29:59.467Z,930.15
2018-12-08T02:30:12.804Z,930.12
2018-12-08T02:30:25.954Z,930.12
2018-12-08T02:30:39.214Z,930.12
2018-12-08T02:30:52.329Z,930.12
2018-12-08T02:31:05.369Z,930.15
2018-12-08T02:31:18.015Z,930.09
2018-12-08T02:31:31.048Z,930.07
2018-12-08T02:31:44.067Z,930.1
2018-12-08T02:31:57.159Z,930.1
2018-12-08T02:32:10.213Z,930.11
2018-12-08T02:32:23.176Z,930.09
2018-12-08T02:32:35.772Z,930.04
2018-12-08T02:32:48.873Z,930.08
2018-12-08T02:33:01.801Z,930.04
2018-12-08T02:33:16.938Z,930.05
2018-12-08T02:33:29.923Z,930.02
2018-12-08T02:33:42.700Z,930.02
2018-12-08T02:33:55.725Z,930.07
2018-12-08T02:34:08.772Z,930.03
2018-12-08T02:34:21.762Z,930.03
2018-12-08T02:34:34.983Z,930
2018-12-08T02:34:48.161Z,930.02
2018-12-08T02:35:02.799Z,930.07
2018-12-08T02:35:15.968Z,930.02
2018-12-08T02:35:29.123Z,930.01
2018-12-08T02:35:42.069Z,930.08
2018-12-08T02:35:55.160Z,930.03
2018-12-08T02:36:08.273Z,930.02
2018-12-08T02:36:21.227Z,930.06
2018-12-08T02:36:34.305Z,930.07
2018-12-08T02:36:47.405Z,930.02
2018-12-08T02:37:00.536Z,930.07
2018-12-08T02:37:13.806Z,930
2018-12-08T02:37:26.783Z,930.01
2018-12-08T02:37:39.863Z,930.02
2018-12-08T02:37:53.009Z,930.05
2018-12-08T02:38:06.120Z,930.04
2018-12-08T02:38:19.336Z,930.04
2018-12-08T02:38:32.479Z,930.06
2018-12-08T02:38:46.292Z,930.03
2018-12-08T02:38:59.438Z,930.01
2018-12-08T02:39:12.406Z,930.08
2018-12-08T02:39:25.729Z,930.04
2018-12-08T02:39:38.856Z,930.05
2018-12-08T02:39:51.855Z,930.06
2018-12-08T02:40:04.883Z,930.01
2018-12-08T02:40:17.965Z,930.05
2018-12-08T02:40:30.986Z,930.04
2018-12-08T02:40:44.204Z,930.03
2018-12-08T02:40:57.254Z,930.04
2018-12-08T02:41:10.250Z,930.03
2018-12-08T02:41:23.362Z,930.05
2018-12-08T02:41:36.346Z,929.98
2018-12-08T02:41:49.496Z,930.03
2018-12-08T02:42:02.377Z,929.98
2018-12-08T02:42:15.361Z,929.97
2018-12-08T02:42:28.467Z,929.97
2018-12-08T02:42:41.456Z,929.97
2018-12-08T02:42:54.445Z,929.99
2018-12-08T02:43:07.379Z,929.94
2018-12-08T02:43:20.419Z,929.95
2018-12-08T02:43:33.670Z,929.98